Frisco, North Carolina
Current Conditions -  °F | °C
As of 7:28 PM on Monday 24 Nov 2014 (Local Time) from KHSE Reporting Station
Haze Haze  
Wind Chill: 66°   Ceiling: 1600
Heat Index: 66°   Visibility: 2.5mi
Dew Point: 66°   Wind: 7mph
Humidity: 100%   Direction: 230°SW
Pressure: 29.92"   Gusts: NA
Location:  35.23°N, 75.63°W
Report Text: KHSE 250028Z AUTO 23006KT 2 1/2SM BR OVC016 19/19 A2992 RMK AO2 T01890189 TSNO
Loading
Personal Weather Stations






























Interactive Weather Map New forecast layout! Learn more

10-Day Weather Forecast

Advertisements
Track Severe Weather on mobile